Andes — 5BFM3 — position and weather

sailwx.info

Track history (hours):
 
Tides and Currents Weather Stations Pressure Air Temp Water Temp Dewpoint Dewpoint Depression Visibility Wind Speed Wind Dir Waves Ship Positions

Andes

Last reported at 2016-Aug-09 17:16 UTC. Time now 2016-Aug-25 13:13 UTC.
Position N 29°41' W 093°50'.
Warning: this ship's position is 15 days out of date.

Length 182 m; draft 11.6 m.

Type: Ship. MMSI: 209394000.

Date/timePositionNaut miles runAvg speedWind from/ knotsBaromVisibWave heightAir tempDewpointWater temp
2016-Aug-09 17:16N 29°41' W 093°50'6 8.4
2016-Aug-09 16:31N 29°46' W 093°55'6 6.1
2016-Aug-09 15:32N 29°52' W 093°56'5 5.3
2016-Aug-09 14:33N 29°56' W 093°52'4 4.0
2016-Aug-09 13:33N 29°59' W 093°55'4 3.9
2016-Aug-09 12:33N 30°01' W 093°59'3 2.9
2016-Aug-09 11:33N 30°02' W 094°02'0 0.0
2016-Aug-08 02:31N 30°02' W 094°02'10 5.3
2016-Aug-08 00:33N 29°57' W 093°52'9 8.6
2016-Aug-07 23:31N 29°50' W 093°58'2 0.0
2016-Aug-06 11:33N 29°51' W 093°58'2 1.6
2016-Aug-06 10:33N 29°50' W 093°58'8 7.7
2016-Aug-06 09:33N 29°44' W 093°52'1312.3
2016-Aug-06 08:31N 29°33' W 093°44'  
Track history (hours):
 
Tides and Currents Weather Stations Pressure Air Temp Water Temp Dewpoint Dewpoint Depression Visibility Wind Speed Wind Dir Waves Ship Positions

Andes

Last reported at 2016-Aug-09 17:16 UTC. Time now 2016-Aug-25 13:13 UTC.
Position N 29°41' W 093°50'.
Warning: this ship's position is 15 days out of date.

Length 182 m; draft 11.6 m.

Type: Ship. MMSI: 209394000.

Date/timePositionNaut miles runAvg speedWind from/ knotsBaromVisibWave heightAir tempDewpointWater temp
2016-Aug-09 17:16N 29°41' W 093°50'6 8.4
2016-Aug-09 16:31N 29°46' W 093°55'6 6.1
2016-Aug-09 15:32N 29°52' W 093°56'5 5.3
2016-Aug-09 14:33N 29°56' W 093°52'4 4.0
2016-Aug-09 13:33N 29°59' W 093°55'4 3.9
2016-Aug-09 12:33N 30°01' W 093°59'3 2.9
2016-Aug-09 11:33N 30°02' W 094°02'0 0.0
2016-Aug-08 02:31N 30°02' W 094°02'10 5.3
2016-Aug-08 00:33N 29°57' W 093°52'9 8.6
2016-Aug-07 23:31N 29°50' W 093°58'2 0.0
2016-Aug-06 11:33N 29°51' W 093°58'2 1.6
2016-Aug-06 10:33N 29°50' W 093°58'8 7.7
2016-Aug-06 09:33N 29°44' W 093°52'1312.3
2016-Aug-06 08:31N 29°33' W 093°44'  

Dump ship's entire track history